Aviation Digital Data Service (ADDS)

Output produced by METARs form (0843 UTC 10 December 2022)
found at http://aviationweather.gov/metar/data/
 
METAR text: EYKA 100820Z VRB01KT 9999 OVC008 M04/M05 Q1010
Conditions at: EYKA (KAUNAS , LT) observed 0820 UTC 10 December 2022
Temperature: -4.0°C (25°F)
Dewpoint: -5.0°C (23°F) [RH = 93%]
Pressure (altimeter): 29.82 inches Hg (1010.0 mb)
Winds: variable direction winds at 1 MPH (1 knots; 0.5 m/s)
Visibility: 6 or more miles (10+ km)
Ceiling: 800 feet AGL
Clouds: overcast cloud deck at 800 feet AGL
Weather: no significant weather observed at this time

METAR text: EYKA 100750Z VRB02KT 9999 OVC010 M04/M05 Q1010
Conditions at: EYKA (KAUNAS , LT) observed 0750 UTC 10 December 2022
Temperature: -4.0°C (25°F)
Dewpoint: -5.0°C (23°F) [RH = 93%]
Pressure (altimeter): 29.82 inches Hg (1010.0 mb)
Winds: variable direction winds at 2 MPH (2 knots; 1.0 m/s)
Visibility: 6 or more miles (10+ km)
Ceiling: 1000 feet AGL
Clouds: overcast cloud deck at 1000 feet AGL
Weather: no significant weather observed at this time

METAR text: EYKA 100720Z VRB01KT 9999 OVC011 M04/M05 Q1010
Conditions at: EYKA (KAUNAS , LT) observed 0720 UTC 10 December 2022
Temperature: -4.0°C (25°F)
Dewpoint: -5.0°C (23°F) [RH = 93%]
Pressure (altimeter): 29.82 inches Hg (1010.0 mb)
Winds: variable direction winds at 1 MPH (1 knots; 0.5 m/s)
Visibility: 6 or more miles (10+ km)
Ceiling: 1100 feet AGL
Clouds: overcast cloud deck at 1100 feet AGL
Weather: no significant weather observed at this time

METAR text: EYKA 100650Z VRB01KT 9999 OVC011 M04/M05 Q1010
Conditions at: EYKA (KAUNAS , LT) observed 0650 UTC 10 December 2022
Temperature: -4.0°C (25°F)
Dewpoint: -5.0°C (23°F) [RH = 93%]
Pressure (altimeter): 29.82 inches Hg (1010.0 mb)
Winds: variable direction winds at 1 MPH (1 knots; 0.5 m/s)
Visibility: 6 or more miles (10+ km)
Ceiling: 1100 feet AGL
Clouds: overcast cloud deck at 1100 feet AGL
Weather: no significant weather observed at this time

Forecast for: EYKA (KAUNAS , LT)
Text: TAF EYKA 100504Z 1006/1106 VRB05KT 6000 OVC005
Forecast period: 0600 to 0900 UTC 10 December 2022
Forecast type: FROM: standard forecast or significant change
Winds: variable direction winds at 6 MPH (5 knots; 2.6 m/s)
Visibility: 4 miles (6 km)
Ceiling: 500 feet AGL
Clouds: overcast cloud deck at 500 feet AGL
Weather: no significant weather forecast for this period
Text: TEMPO 1006/1009 3000 BR OVC003
Forecast period: 0600 to 0900 UTC 10 December 2022
Forecast type: TEMPORARY: The following changes expected for less than half the time period
Visibility: 1.86 miles (2.99 km)
Ceiling: 300 feet AGL
Clouds: overcast cloud deck at 300 feet AGL
Weather: BR  (mist)
Text: BECMG 1009/1010 OVC010
Forecast period: 0900 UTC 10 December 2022 to 0600 UTC 11 December 2022
Forecast type: BECOMING: Conditions expected to become as follows by 1000 UTC 10 December 2022
Winds: variable direction winds at 6 MPH (5 knots; 2.6 m/s)
Visibility: 4 miles (6 km)
Ceiling: 1000 feet AGL
Clouds: overcast cloud deck at 1000 feet AGL
Weather: no significant weather forecast for this period